sensor_id;sensor_type;location;lat;lon;timestamp;P1;durP1;ratioP1;P2;durP2;ratioP2
48052;SDS011;33824;51.600;5.718;2023-04-03T00:00:09;6.40;;;2.78;;
48052;SDS011;33824;51.600;5.718;2023-04-03T00:02:56;4.32;;;2.88;;
48052;SDS011;33824;51.600;5.718;2023-04-03T00:05:21;4.65;;;2.60;;
48052;SDS011;33824;51.600;5.718;2023-04-03T00:07:47;6.13;;;2.88;;
48052;SDS011;33824;51.600;5.718;2023-04-03T00:10:14;6.45;;;3.08;;
48052;SDS011;33824;51.600;5.718;2023-04-03T00:12:40;7.50;;;2.95;;
48052;SDS011;33824;51.600;5.718;2023-04-03T00:15:06;5.88;;;2.58;;
48052;SDS011;33824;51.600;5.718;2023-04-03T00:17:32;6.65;;;2.60;;
48052;SDS011;33824;51.600;5.718;2023-04-03T00:19:57;7.00;;;2.78;;
48052;SDS011;33824;51.600;5.718;2023-04-03T00:22:23;4.45;;;2.70;;
48052;SDS011;33824;51.600;5.718;2023-04-03T00:24:48;6.45;;;3.08;;
48052;SDS011;33824;51.600;5.718;2023-04-03T00:27:14;13.15;;;3.08;;
48052;SDS011;33824;51.600;5.718;2023-04-03T00:29:40;9.57;;;3.80;;
48052;SDS011;33824;51.600;5.718;2023-04-03T00:32:06;8.40;;;3.40;;
48052;SDS011;33824;51.600;5.718;2023-04-03T00:34:31;5.47;;;2.30;;
48052;SDS011;33824;51.600;5.718;2023-04-03T00:36:57;3.88;;;2.45;;
48052;SDS011;33824;51.600;5.718;2023-04-03T00:39:23;6.95;;;2.97;;
48052;SDS011;33824;51.600;5.718;2023-04-03T00:41:48;6.43;;;2.88;;
48052;SDS011;33824;51.600;5.718;2023-04-03T00:47:13;7.30;;;3.42;;
48052;SDS011;33824;51.600;5.718;2023-04-03T00:49:42;6.10;;;3.22;;
48052;SDS011;33824;51.600;5.718;2023-04-03T00:52:10;7.28;;;2.92;;
48052;SDS011;33824;51.600;5.718;2023-04-03T00:54:39;6.20;;;3.03;;
48052;SDS011;33824;51.600;5.718;2023-04-03T00:57:06;11.00;;;3.80;;
48052;SDS011;33824;51.600;5.718;2023-04-03T00:59:34;9.35;;;3.08;;
48052;SDS011;33824;51.600;5.718;2023-04-03T01:02:03;9.23;;;3.42;;
48052;SDS011;33824;51.600;5.718;2023-04-03T01:04:31;9.52;;;3.63;;
48052;SDS011;33824;51.600;5.718;2023-04-03T01:07:03;10.88;;;2.90;;
48052;SDS011;33824;51.600;5.718;2023-04-03T01:09:52;9.30;;;3.30;;
48052;SDS011;33824;51.600;5.718;2023-04-03T01:12:22;5.85;;;3.17;;
48052;SDS011;33824;51.600;5.718;2023-04-03T01:14:49;5.95;;;2.78;;
48052;SDS011;33824;51.600;5.718;2023-04-03T01:17:30;7.40;;;3.05;;
48052;SDS011;33824;51.600;5.718;2023-04-03T01:20:34;13.25;;;3.42;;
48052;SDS011;33824;51.600;5.718;2023-04-03T01:23:21;8.30;;;2.83;;
48052;SDS011;33824;51.600;5.718;2023-04-03T01:25:55;7.45;;;2.80;;
48052;SDS011;33824;51.600;5.718;2023-04-03T01:28:23;6.53;;;2.78;;
48052;SDS011;33824;51.600;5.718;2023-04-03T01:33:30;5.82;;;2.40;;
48052;SDS011;33824;51.600;5.718;2023-04-03T01:35:56;5.65;;;2.47;;
48052;SDS011;33824;51.600;5.718;2023-04-03T01:38:22;5.88;;;2.55;;
48052;SDS011;33824;51.600;5.718;2023-04-03T01:40:47;4.07;;;2.05;;
48052;SDS011;33824;51.600;5.718;2023-04-03T01:43:13;7.53;;;2.60;;
48052;SDS011;33824;51.600;5.718;2023-04-03T01:45:38;11.35;;;3.17;;
48052;SDS011;33824;51.600;5.718;2023-04-03T01:48:04;3.80;;;2.15;;
48052;SDS011;33824;51.600;5.718;2023-04-03T01:50:30;4.93;;;2.20;;
48052;SDS011;33824;51.600;5.718;2023-04-03T01:52:56;4.50;;;2.00;;
48052;SDS011;33824;51.600;5.718;2023-04-03T01:55:21;7.55;;;2.22;;
48052;SDS011;33824;51.600;5.718;2023-04-03T01:57:47;4.78;;;2.38;;
48052;SDS011;33824;51.600;5.718;2023-04-03T02:00:12;5.18;;;2.10;;
48052;SDS011;33824;51.600;5.718;2023-04-03T02:02:39;6.05;;;2.65;;
48052;SDS011;33824;51.600;5.718;2023-04-03T02:05:04;7.95;;;2.40;;
48052;SDS011;33824;51.600;5.718;2023-04-03T02:07:31;6.40;;;2.10;;
48052;SDS011;33824;51.600;5.718;2023-04-03T02:09:56;5.13;;;2.58;;
48052;SDS011;33824;51.600;5.718;2023-04-03T02:12:22;3.53;;;1.80;;
48052;SDS011;33824;51.600;5.718;2023-04-03T02:14:47;6.85;;;2.13;;
48052;SDS011;33824;51.600;5.718;2023-04-03T02:17:13;4.25;;;2.30;;
48052;SDS011;33824;51.600;5.718;2023-04-03T02:19:38;10.68;;;2.05;;
48052;SDS011;33824;51.600;5.718;2023-04-03T02:22:04;4.05;;;1.58;;
48052;SDS011;33824;51.600;5.718;2023-04-03T02:24:30;3.58;;;1.90;;
48052;SDS011;33824;51.600;5.718;2023-04-03T02:26:57;4.88;;;1.70;;
48052;SDS011;33824;51.600;5.718;2023-04-03T02:29:23;5.60;;;1.67;;
48052;SDS011;33824;51.600;5.718;2023-04-03T02:31:49;5.57;;;1.75;;
48052;SDS011;33824;51.600;5.718;2023-04-03T02:34:15;4.38;;;1.65;;
48052;SDS011;33824;51.600;5.718;2023-04-03T02:36:41;4.10;;;1.67;;
48052;SDS011;33824;51.600;5.718;2023-04-03T02:39:06;5.28;;;1.80;;
48052;SDS011;33824;51.600;5.718;2023-04-03T02:41:32;6.22;;;1.90;;
48052;SDS011;33824;51.600;5.718;2023-04-03T02:44:01;6.28;;;1.85;;
48052;SDS011;33824;51.600;5.718;2023-04-03T02:46:28;3.10;;;1.63;;
48052;SDS011;33824;51.600;5.718;2023-04-03T02:48:53;5.47;;;2.00;;
48052;SDS011;33824;51.600;5.718;2023-04-03T02:51:19;9.90;;;1.33;;
48052;SDS011;33824;51.600;5.718;2023-04-03T02:53:45;5.35;;;2.05;;
48052;SDS011;33824;51.600;5.718;2023-04-03T02:56:10;5.68;;;1.92;;
48052;SDS011;33824;51.600;5.718;2023-04-03T02:58:36;4.53;;;1.85;;
48052;SDS011;33824;51.600;5.718;2023-04-03T03:01:02;2.95;;;1.58;;
48052;SDS011;33824;51.600;5.718;2023-04-03T03:03:27;2.65;;;1.40;;
48052;SDS011;33824;51.600;5.718;2023-04-03T03:08:33;10.07;;;2.13;;
48052;SDS011;33824;51.600;5.718;2023-04-03T03:11:00;4.97;;;1.35;;
48052;SDS011;33824;51.600;5.718;2023-04-03T03:13:25;4.72;;;1.45;;
48052;SDS011;33824;51.600;5.718;2023-04-03T03:15:51;6.18;;;1.50;;
48052;SDS011;33824;51.600;5.718;2023-04-03T03:18:17;5.50;;;1.80;;
48052;SDS011;33824;51.600;5.718;2023-04-03T03:20:42;6.93;;;2.03;;
48052;SDS011;33824;51.600;5.718;2023-04-03T03:23:08;4.00;;;1.33;;
48052;SDS011;33824;51.600;5.718;2023-04-03T03:25:38;4.60;;;1.42;;
48052;SDS011;33824;51.600;5.718;2023-04-03T03:28:04;5.13;;;1.63;;
48052;SDS011;33824;51.600;5.718;2023-04-03T03:30:30;1.60;;;1.17;;
48052;SDS011;33824;51.600;5.718;2023-04-03T03:32:56;6.68;;;1.75;;
48052;SDS011;33824;51.600;5.718;2023-04-03T03:35:22;6.10;;;1.35;;
48052;SDS011;33824;51.600;5.718;2023-04-03T03:37:47;5.13;;;1.95;;
48052;SDS011;33824;51.600;5.718;2023-04-03T03:40:13;2.97;;;1.38;;
48052;SDS011;33824;51.600;5.718;2023-04-03T03:42:39;2.42;;;1.40;;
48052;SDS011;33824;51.600;5.718;2023-04-03T03:45:04;5.57;;;1.58;;
48052;SDS011;33824;51.600;5.718;2023-04-03T03:47:30;4.78;;;1.67;;
48052;SDS011;33824;51.600;5.718;2023-04-03T03:49:56;9.60;;;1.77;;
48052;SDS011;33824;51.600;5.718;2023-04-03T03:52:22;9.20;;;1.50;;
48052;SDS011;33824;51.600;5.718;2023-04-03T03:54:47;3.13;;;1.25;;
48052;SDS011;33824;51.600;5.718;2023-04-03T03:57:13;7.72;;;1.42;;
48052;SDS011;33824;51.600;5.718;2023-04-03T03:59:39;4.70;;;1.45;;
48052;SDS011;33824;51.600;5.718;2023-04-03T04:02:07;5.63;;;1.60;;
48052;SDS011;33824;51.600;5.718;2023-04-03T04:04:33;5.20;;;1.80;;
48052;SDS011;33824;51.600;5.718;2023-04-03T04:06:58;3.83;;;1.30;;
48052;SDS011;33824;51.600;5.718;2023-04-03T04:09:26;5.38;;;1.40;;
48052;SDS011;33824;51.600;5.718;2023-04-03T04:11:51;4.70;;;1.52;;
48052;SDS011;33824;51.600;5.718;2023-04-03T04:14:17;2.65;;;1.38;;
48052;SDS011;33824;51.600;5.718;2023-04-03T04:16:43;4.95;;;1.48;;
48052;SDS011;33824;51.600;5.718;2023-04-03T04:19:09;9.30;;;1.40;;
48052;SDS011;33824;51.600;5.718;2023-04-03T04:21:34;4.07;;;1.63;;
48052;SDS011;33824;51.600;5.718;2023-04-03T04:24:00;5.35;;;1.40;;
48052;SDS011;33824;51.600;5.718;2023-04-03T04:26:26;5.75;;;1.67;;
48052;SDS011;33824;51.600;5.718;2023-04-03T04:28:51;6.57;;;1.95;;
48052;SDS011;33824;51.600;5.718;2023-04-03T04:31:17;6.22;;;1.40;;
48052;SDS011;33824;51.600;5.718;2023-04-03T04:33:43;5.55;;;1.35;;
48052;SDS011;33824;51.600;5.718;2023-04-03T04:36:08;5.20;;;2.03;;
48052;SDS011;33824;51.600;5.718;2023-04-03T04:38:34;4.03;;;1.50;;
48052;SDS011;33824;51.600;5.718;2023-04-03T04:40:59;4.28;;;1.27;;
48052;SDS011;33824;51.600;5.718;2023-04-03T04:43:25;4.65;;;1.50;;
48052;SDS011;33824;51.600;5.718;2023-04-03T04:46:07;4.28;;;1.30;;
48052;SDS011;33824;51.600;5.718;2023-04-03T04:48:56;5.72;;;1.25;;
48052;SDS011;33824;51.600;5.718;2023-04-03T04:51:21;6.03;;;1.48;;
48052;SDS011;33824;51.600;5.718;2023-04-03T04:53:47;3.72;;;1.60;;
48052;SDS011;33824;51.600;5.718;2023-04-03T04:56:12;4.22;;;1.40;;
48052;SDS011;33824;51.600;5.718;2023-04-03T04:58:38;2.33;;;1.08;;
48052;SDS011;33824;51.600;5.718;2023-04-03T05:01:05;3.17;;;1.35;;
48052;SDS011;33824;51.600;5.718;2023-04-03T05:03:32;11.27;;;1.40;;
48052;SDS011;33824;51.600;5.718;2023-04-03T05:05:58;5.65;;;1.58;;
48052;SDS011;33824;51.600;5.718;2023-04-03T05:08:24;6.15;;;1.70;;
48052;SDS011;33824;51.600;5.718;2023-04-03T05:10:50;2.40;;;1.00;;
48052;SDS011;33824;51.600;5.718;2023-04-03T05:13:16;4.45;;;1.25;;
48052;SDS011;33824;51.600;5.718;2023-04-03T05:15:42;3.67;;;1.33;;
48052;SDS011;33824;51.600;5.718;2023-04-03T05:18:07;6.60;;;1.30;;
48052;SDS011;33824;51.600;5.718;2023-04-03T05:20:33;4.80;;;1.35;;
48052;SDS011;33824;51.600;5.718;2023-04-03T05:23:00;2.05;;;1.10;;
48052;SDS011;33824;51.600;5.718;2023-04-03T05:25:26;4.13;;;1.35;;
48052;SDS011;33824;51.600;5.718;2023-04-03T05:27:52;3.10;;;1.05;;
48052;SDS011;33824;51.600;5.718;2023-04-03T05:30:18;5.50;;;1.20;;
48052;SDS011;33824;51.600;5.718;2023-04-03T05:32:43;3.38;;;1.20;;
48052;SDS011;33824;51.600;5.718;2023-04-03T05:35:09;3.60;;;1.10;;
48052;SDS011;33824;51.600;5.718;2023-04-03T05:37:35;3.75;;;1.25;;
48052;SDS011;33824;51.600;5.718;2023-04-03T05:40:02;3.53;;;1.45;;
48052;SDS011;33824;51.600;5.718;2023-04-03T05:42:28;4.85;;;1.17;;
48052;SDS011;33824;51.600;5.718;2023-04-03T05:44:55;3.15;;;1.42;;
48052;SDS011;33824;51.600;5.718;2023-04-03T05:47:20;4.05;;;1.13;;
48052;SDS011;33824;51.600;5.718;2023-04-03T05:49:49;6.65;;;1.65;;
48052;SDS011;33824;51.600;5.718;2023-04-03T05:52:22;4.47;;;1.33;;
48052;SDS011;33824;51.600;5.718;2023-04-03T05:54:50;4.07;;;1.55;;
48052;SDS011;33824;51.600;5.718;2023-04-03T05:57:16;5.43;;;1.60;;
48052;SDS011;33824;51.600;5.718;2023-04-03T05:59:44;5.78;;;1.25;;
48052;SDS011;33824;51.600;5.718;2023-04-03T06:02:28;5.50;;;1.65;;
48052;SDS011;33824;51.600;5.718;2023-04-03T06:04:54;8.68;;;1.30;;
48052;SDS011;33824;51.600;5.718;2023-04-03T06:07:20;5.72;;;1.42;;
48052;SDS011;33824;51.600;5.718;2023-04-03T06:09:48;10.45;;;2.10;;
48052;SDS011;33824;51.600;5.718;2023-04-03T06:12:16;8.00;;;1.33;;
48052;SDS011;33824;51.600;5.718;2023-04-03T06:14:43;6.40;;;1.38;;
48052;SDS011;33824;51.600;5.718;2023-04-03T06:17:08;6.22;;;1.40;;
48052;SDS011;33824;51.600;5.718;2023-04-03T06:19:35;4.22;;;1.08;;
48052;SDS011;33824;51.600;5.718;2023-04-03T06:22:01;4.65;;;1.27;;
48052;SDS011;33824;51.600;5.718;2023-04-03T06:24:30;2.65;;;1.15;;
48052;SDS011;33824;51.600;5.718;2023-04-03T06:26:56;5.60;;;1.48;;
48052;SDS011;33824;51.600;5.718;2023-04-03T06:29:22;8.45;;;2.25;;
48052;SDS011;33824;51.600;5.718;2023-04-03T06:31:48;2.75;;;1.30;;
48052;SDS011;33824;51.600;5.718;2023-04-03T06:34:15;4.35;;;1.40;;
48052;SDS011;33824;51.600;5.718;2023-04-03T06:36:40;4.00;;;1.27;;
48052;SDS011;33824;51.600;5.718;2023-04-03T06:39:06;9.82;;;1.58;;
48052;SDS011;33824;51.600;5.718;2023-04-03T06:41:32;8.23;;;1.45;;
48052;SDS011;33824;51.600;5.718;2023-04-03T06:43:58;4.28;;;1.15;;
48052;SDS011;33824;51.600;5.718;2023-04-03T06:46:24;2.85;;;1.17;;
48052;SDS011;33824;51.600;5.718;2023-04-03T06:48:52;16.52;;;1.60;;
48052;SDS011;33824;51.600;5.718;2023-04-03T06:51:22;8.20;;;1.63;;
48052;SDS011;33824;51.600;5.718;2023-04-03T06:53:50;4.28;;;1.20;;
48052;SDS011;33824;51.600;5.718;2023-04-03T06:56:21;11.10;;;1.73;;
48052;SDS011;33824;51.600;5.718;2023-04-03T06:58:48;5.13;;;1.38;;
48052;SDS011;33824;51.600;5.718;2023-04-03T07:01:15;5.55;;;1.50;;
48052;SDS011;33824;51.600;5.718;2023-04-03T07:03:43;3.92;;;1.55;;
48052;SDS011;33824;51.600;5.718;2023-04-03T07:06:12;4.65;;;1.20;;
48052;SDS011;33824;51.600;5.718;2023-04-03T07:08:39;3.47;;;1.15;;
48052;SDS011;33824;51.600;5.718;2023-04-03T07:11:05;7.63;;;1.25;;
48052;SDS011;33824;51.600;5.718;2023-04-03T07:13:31;7.15;;;1.60;;
48052;SDS011;33824;51.600;5.718;2023-04-03T07:15:57;6.05;;;1.60;;
48052;SDS011;33824;51.600;5.718;2023-04-03T07:18:24;5.60;;;1.60;;
48052;SDS011;33824;51.600;5.718;2023-04-03T07:20:49;12.48;;;1.83;;
48052;SDS011;33824;51.600;5.718;2023-04-03T07:23:15;2.83;;;0.93;;
48052;SDS011;33824;51.600;5.718;2023-04-03T07:25:44;5.07;;;1.50;;
48052;SDS011;33824;51.600;5.718;2023-04-03T07:28:11;7.38;;;1.50;;
48052;SDS011;33824;51.600;5.718;2023-04-03T07:30:47;7.72;;;1.90;;
48052;SDS011;33824;51.600;5.718;2023-04-03T07:33:15;3.17;;;1.20;;
48052;SDS011;33824;51.600;5.718;2023-04-03T07:35:43;6.97;;;1.60;;
48052;SDS011;33824;51.600;5.718;2023-04-03T07:38:09;7.90;;;1.27;;
48052;SDS011;33824;51.600;5.718;2023-04-03T07:40:35;8.68;;;1.35;;
48052;SDS011;33824;51.600;5.718;2023-04-03T07:43:02;6.15;;;1.55;;
48052;SDS011;33824;51.600;5.718;2023-04-03T07:45:27;5.93;;;1.50;;
48052;SDS011;33824;51.600;5.718;2023-04-03T07:47:53;3.28;;;1.25;;
48052;SDS011;33824;51.600;5.718;2023-04-03T07:50:19;4.82;;;1.05;;
48052;SDS011;33824;51.600;5.718;2023-04-03T07:52:44;6.97;;;1.13;;
48052;SDS011;33824;51.600;5.718;2023-04-03T07:55:10;6.05;;;1.08;;
48052;SDS011;33824;51.600;5.718;2023-04-03T07:57:37;3.42;;;0.95;;
48052;SDS011;33824;51.600;5.718;2023-04-03T08:00:03;3.35;;;1.20;;
48052;SDS011;33824;51.600;5.718;2023-04-03T08:02:30;8.68;;;1.48;;
48052;SDS011;33824;51.600;5.718;2023-04-03T08:04:59;2.88;;;1.15;;
48052;SDS011;33824;51.600;5.718;2023-04-03T08:07:25;7.03;;;1.80;;
48052;SDS011;33824;51.600;5.718;2023-04-03T08:09:51;4.88;;;1.25;;
48052;SDS011;33824;51.600;5.718;2023-04-03T08:12:17;9.93;;;1.60;;
48052;SDS011;33824;51.600;5.718;2023-04-03T08:14:42;4.50;;;1.40;;
48052;SDS011;33824;51.600;5.718;2023-04-03T08:17:08;3.20;;;1.20;;
48052;SDS011;33824;51.600;5.718;2023-04-03T08:19:39;5.90;;;2.17;;
48052;SDS011;33824;51.600;5.718;2023-04-03T08:22:06;4.28;;;1.27;;
48052;SDS011;33824;51.600;5.718;2023-04-03T08:24:32;6.05;;;1.23;;
48052;SDS011;33824;51.600;5.718;2023-04-03T08:27:01;8.30;;;1.50;;
48052;SDS011;33824;51.600;5.718;2023-04-03T08:29:31;6.32;;;1.35;;
48052;SDS011;33824;51.600;5.718;2023-04-03T08:31:57;4.03;;;1.55;;
48052;SDS011;33824;51.600;5.718;2023-04-03T08:34:22;7.60;;;1.27;;
48052;SDS011;33824;51.600;5.718;2023-04-03T08:36:49;7.47;;;1.40;;
48052;SDS011;33824;51.600;5.718;2023-04-03T08:39:14;3.78;;;0.98;;
48052;SDS011;33824;51.600;5.718;2023-04-03T08:41:41;6.75;;;1.48;;
48052;SDS011;33824;51.600;5.718;2023-04-03T08:44:52;2.53;;;0.90;;
48052;SDS011;33824;51.600;5.718;2023-04-03T08:49:59;5.90;;;1.02;;
48052;SDS011;33824;51.600;5.718;2023-04-03T08:52:31;3.55;;;1.25;;
48052;SDS011;33824;51.600;5.718;2023-04-03T08:55:02;2.50;;;1.00;;
48052;SDS011;33824;51.600;5.718;2023-04-03T09:00:00;4.00;;;0.68;;
48052;SDS011;33824;51.600;5.718;2023-04-03T09:02:41;1.08;;;0.75;;
48052;SDS011;33824;51.600;5.718;2023-04-03T09:10:46;2.45;;;0.70;;
48052;SDS011;33824;51.600;5.718;2023-04-03T09:13:24;2.70;;;0.70;;
48052;SDS011;33824;51.600;5.718;2023-04-03T09:15:56;0.98;;;0.60;;
48052;SDS011;33824;51.600;5.718;2023-04-03T09:18:23;3.85;;;1.00;;
48052;SDS011;33824;51.600;5.718;2023-04-03T09:21:13;4.75;;;0.88;;
48052;SDS011;33824;51.600;5.718;2023-04-03T09:23:48;5.28;;;1.38;;
48052;SDS011;33824;51.600;5.718;2023-04-03T09:26:17;3.58;;;0.70;;
48052;SDS011;33824;51.600;5.718;2023-04-03T09:28:46;3.13;;;0.98;;
48052;SDS011;33824;51.600;5.718;2023-04-03T09:31:58;2.88;;;0.68;;
48052;SDS011;33824;51.600;5.718;2023-04-03T09:34:06;4.10;;;0.70;;
48052;SDS011;33824;51.600;5.718;2023-04-03T09:36:39;1.98;;;0.90;;
48052;SDS011;33824;51.600;5.718;2023-04-03T09:39:07;7.25;;;0.93;;
48052;SDS011;33824;51.600;5.718;2023-04-03T09:41:36;0.70;;;0.40;;
48052;SDS011;33824;51.600;5.718;2023-04-03T09:44:02;3.28;;;1.00;;
48052;SDS011;33824;51.600;5.718;2023-04-03T09:46:31;0.40;;;0.40;;
48052;SDS011;33824;51.600;5.718;2023-04-03T09:49:00;2.35;;;0.60;;
48052;SDS011;33824;51.600;5.718;2023-04-03T09:51:28;2.00;;;0.68;;
48052;SDS011;33824;51.600;5.718;2023-04-03T09:53:54;3.13;;;0.40;;
48052;SDS011;33824;51.600;5.718;2023-04-03T09:56:22;1.85;;;0.60;;
48052;SDS011;33824;51.600;5.718;2023-04-03T10:01:33;1.70;;;0.52;;
48052;SDS011;33824;51.600;5.718;2023-04-03T10:04:08;1.05;;;0.50;;
48052;SDS011;33824;51.600;5.718;2023-04-03T10:06:45;3.50;;;0.45;;
48052;SDS011;33824;51.600;5.718;2023-04-03T10:09:25;1.75;;;0.38;;
48052;SDS011;33824;51.600;5.718;2023-04-03T10:12:05;2.65;;;0.60;;
48052;SDS011;33824;51.600;5.718;2023-04-03T10:14:38;2.28;;;0.70;;
48052;SDS011;33824;51.600;5.718;2023-04-03T10:19:47;2.13;;;0.50;;
48052;SDS011;33824;51.600;5.718;2023-04-03T10:22:25;0.80;;;0.30;;
48052;SDS011;33824;51.600;5.718;2023-04-03T10:25:21;2.40;;;0.60;;
48052;SDS011;33824;51.600;5.718;2023-04-03T10:28:00;0.43;;;0.30;;
48052;SDS011;33824;51.600;5.718;2023-04-03T10:30:57;1.58;;;0.60;;
48052;SDS011;33824;51.600;5.718;2023-04-03T10:36:45;1.60;;;0.60;;
48052;SDS011;33824;51.600;5.718;2023-04-03T10:42:07;0.95;;;0.43;;
48052;SDS011;33824;51.600;5.718;2023-04-03T10:50:31;3.30;;;0.63;;
48052;SDS011;33824;51.600;5.718;2023-04-03T10:53:26;2.17;;;0.70;;
48052;SDS011;33824;51.600;5.718;2023-04-03T10:58:32;1.27;;;0.50;;
48052;SDS011;33824;51.600;5.718;2023-04-03T11:01:02;4.85;;;0.70;;
48052;SDS011;33824;51.600;5.718;2023-04-03T11:03:47;2.35;;;0.50;;
48052;SDS011;33824;51.600;5.718;2023-04-03T11:06:22;0.85;;;0.45;;
48052;SDS011;33824;51.600;5.718;2023-04-03T11:09:00;0.90;;;0.38;;
48052;SDS011;33824;51.600;5.718;2023-04-03T11:11:35;0.82;;;0.50;;
48052;SDS011;33824;51.600;5.718;2023-04-03T11:14:20;1.20;;;0.40;;
48052;SDS011;33824;51.600;5.718;2023-04-03T11:19:38;1.55;;;0.68;;
48052;SDS011;33824;51.600;5.718;2023-04-03T11:22:16;3.22;;;0.70;;
48052;SDS011;33824;51.600;5.718;2023-04-03T11:24:55;2.90;;;0.90;;
48052;SDS011;33824;51.600;5.718;2023-04-03T11:27:28;1.25;;;0.63;;
48052;SDS011;33824;51.600;5.718;2023-04-03T11:30:00;1.42;;;0.65;;
48052;SDS011;33824;51.600;5.718;2023-04-03T11:32:34;1.23;;;0.50;;
48052;SDS011;33824;51.600;5.718;2023-04-03T11:35:17;1.23;;;0.52;;
48052;SDS011;33824;51.600;5.718;2023-04-03T11:37:48;2.10;;;0.57;;
48052;SDS011;33824;51.600;5.718;2023-04-03T11:40:19;3.65;;;0.82;;
48052;SDS011;33824;51.600;5.718;2023-04-03T11:42:52;1.95;;;0.68;;
48052;SDS011;33824;51.600;5.718;2023-04-03T11:45:37;2.47;;;0.85;;
48052;SDS011;33824;51.600;5.718;2023-04-03T11:50:46;3.85;;;0.77;;
48052;SDS011;33824;51.600;5.718;2023-04-03T11:55:42;3.30;;;0.77;;
48052;SDS011;33824;51.600;5.718;2023-04-03T11:58:13;2.63;;;0.70;;
48052;SDS011;33824;51.600;5.718;2023-04-03T12:14:01;4.72;;;0.80;;
48052;SDS011;33824;51.600;5.718;2023-04-03T12:16:33;5.13;;;1.10;;
48052;SDS011;33824;51.600;5.718;2023-04-03T12:26:49;1.75;;;0.90;;
48052;SDS011;33824;51.600;5.718;2023-04-03T12:29:45;8.10;;;1.15;;
48052;SDS011;33824;51.600;5.718;2023-04-03T12:45:50;7.78;;;1.10;;
48052;SDS011;33824;51.600;5.718;2023-04-03T12:48:25;3.22;;;1.10;;
48052;SDS011;33824;51.600;5.718;2023-04-03T12:50:53;3.70;;;0.90;;
48052;SDS011;33824;51.600;5.718;2023-04-03T12:53:24;4.22;;;0.90;;
48052;SDS011;33824;51.600;5.718;2023-04-03T12:58:23;1.98;;;0.77;;
48052;SDS011;33824;51.600;5.718;2023-04-03T13:01:09;3.25;;;0.95;;
48052;SDS011;33824;51.600;5.718;2023-04-03T13:03:39;2.42;;;0.60;;
48052;SDS011;33824;51.600;5.718;2023-04-03T13:06:11;2.97;;;0.80;;
48052;SDS011;33824;51.600;5.718;2023-04-03T13:12:12;2.30;;;0.60;;
48052;SDS011;33824;51.600;5.718;2023-04-03T13:14:39;2.58;;;0.60;;
48052;SDS011;33824;51.600;5.718;2023-04-03T13:17:15;4.10;;;0.70;;
48052;SDS011;33824;51.600;5.718;2023-04-03T13:19:43;4.03;;;0.65;;
48052;SDS011;33824;51.600;5.718;2023-04-03T13:22:18;2.85;;;0.85;;
48052;SDS011;33824;51.600;5.718;2023-04-03T13:24:56;3.83;;;1.00;;
48052;SDS011;33824;51.600;5.718;2023-04-03T13:27:24;2.20;;;1.15;;
48052;SDS011;33824;51.600;5.718;2023-04-03T13:29:52;2.95;;;0.70;;
48052;SDS011;33824;51.600;5.718;2023-04-03T13:32:20;1.65;;;0.82;;
48052;SDS011;33824;51.600;5.718;2023-04-03T13:34:48;2.33;;;1.00;;
48052;SDS011;33824;51.600;5.718;2023-04-03T13:37:24;2.88;;;0.90;;
48052;SDS011;33824;51.600;5.718;2023-04-03T13:40:08;5.25;;;0.70;;
48052;SDS011;33824;51.600;5.718;2023-04-03T13:42:37;3.55;;;0.88;;
48052;SDS011;33824;51.600;5.718;2023-04-03T13:47:43;3.22;;;0.90;;
48052;SDS011;33824;51.600;5.718;2023-04-03T13:52:47;3.25;;;1.00;;
48052;SDS011;33824;51.600;5.718;2023-04-03T13:57:49;4.13;;;1.20;;
48052;SDS011;33824;51.600;5.718;2023-04-03T14:03:23;7.97;;;0.77;;
48052;SDS011;33824;51.600;5.718;2023-04-03T14:05:50;3.22;;;0.80;;
48052;SDS011;33824;51.600;5.718;2023-04-03T14:08:16;2.25;;;0.82;;
48052;SDS011;33824;51.600;5.718;2023-04-03T14:10:42;4.07;;;0.73;;
48052;SDS011;33824;51.600;5.718;2023-04-03T14:13:15;6.38;;;0.90;;
48052;SDS011;33824;51.600;5.718;2023-04-03T14:15:42;2.20;;;0.80;;
48052;SDS011;33824;51.600;5.718;2023-04-03T14:18:10;3.38;;;0.98;;
48052;SDS011;33824;51.600;5.718;2023-04-03T14:20:38;4.88;;;0.88;;
48052;SDS011;33824;51.600;5.718;2023-04-03T14:23:03;5.95;;;0.90;;
48052;SDS011;33824;51.600;5.718;2023-04-03T14:25:29;2.60;;;1.15;;
48052;SDS011;33824;51.600;5.718;2023-04-03T14:27:54;1.25;;;0.80;;
48052;SDS011;33824;51.600;5.718;2023-04-03T14:30:22;2.70;;;0.75;;
48052;SDS011;33824;51.600;5.718;2023-04-03T14:32:50;4.35;;;1.15;;
48052;SDS011;33824;51.600;5.718;2023-04-03T14:35:16;3.80;;;1.38;;
48052;SDS011;33824;51.600;5.718;2023-04-03T14:37:43;7.90;;;0.90;;
48052;SDS011;33824;51.600;5.718;2023-04-03T14:40:31;3.28;;;0.98;;
48052;SDS011;33824;51.600;5.718;2023-04-03T14:42:56;1.63;;;0.70;;
48052;SDS011;33824;51.600;5.718;2023-04-03T14:45:23;2.53;;;0.88;;
48052;SDS011;33824;51.600;5.718;2023-04-03T14:47:50;2.08;;;0.60;;
48052;SDS011;33824;51.600;5.718;2023-04-03T14:50:26;5.40;;;1.38;;
48052;SDS011;33824;51.600;5.718;2023-04-03T14:52:53;5.63;;;0.93;;
48052;SDS011;33824;51.600;5.718;2023-04-03T14:55:22;4.25;;;1.00;;
48052;SDS011;33824;51.600;5.718;2023-04-03T14:57:49;2.72;;;1.00;;
48052;SDS011;33824;51.600;5.718;2023-04-03T15:00:17;4.78;;;1.00;;
48052;SDS011;33824;51.600;5.718;2023-04-03T15:02:44;2.90;;;0.90;;
48052;SDS011;33824;51.600;5.718;2023-04-03T15:05:10;4.63;;;1.05;;
48052;SDS011;33824;51.600;5.718;2023-04-03T15:07:38;5.38;;;1.02;;
48052;SDS011;33824;51.600;5.718;2023-04-03T15:10:19;4.78;;;0.98;;
48052;SDS011;33824;51.600;5.718;2023-04-03T15:12:45;1.63;;;0.68;;
48052;SDS011;33824;51.600;5.718;2023-04-03T15:15:11;6.18;;;1.35;;
48052;SDS011;33824;51.600;5.718;2023-04-03T15:17:37;3.05;;;0.90;;
48052;SDS011;33824;51.600;5.718;2023-04-03T15:20:05;7.30;;;1.00;;
48052;SDS011;33824;51.600;5.718;2023-04-03T15:22:39;1.83;;;0.88;;
48052;SDS011;33824;51.600;5.718;2023-04-03T15:25:04;4.35;;;1.20;;
48052;SDS011;33824;51.600;5.718;2023-04-03T15:27:30;4.35;;;1.00;;
48052;SDS011;33824;51.600;5.718;2023-04-03T15:29:55;2.50;;;0.80;;
48052;SDS011;33824;51.600;5.718;2023-04-03T15:32:21;4.50;;;0.88;;
48052;SDS011;33824;51.600;5.718;2023-04-03T15:34:46;1.30;;;0.70;;
48052;SDS011;33824;51.600;5.718;2023-04-03T15:37:12;3.75;;;0.75;;
48052;SDS011;33824;51.600;5.718;2023-04-03T15:39:38;3.92;;;0.93;;
48052;SDS011;33824;51.600;5.718;2023-04-03T15:42:03;4.07;;;1.30;;
48052;SDS011;33824;51.600;5.718;2023-04-03T15:44:31;2.60;;;0.88;;
48052;SDS011;33824;51.600;5.718;2023-04-03T15:46:58;3.55;;;1.45;;
48052;SDS011;33824;51.600;5.718;2023-04-03T15:49:25;3.30;;;0.88;;
48052;SDS011;33824;51.600;5.718;2023-04-03T15:51:51;1.00;;;0.52;;
48052;SDS011;33824;51.600;5.718;2023-04-03T15:54:17;4.88;;;1.10;;
48052;SDS011;33824;51.600;5.718;2023-04-03T15:56:43;4.25;;;0.85;;
48052;SDS011;33824;51.600;5.718;2023-04-03T15:59:09;5.15;;;0.77;;
48052;SDS011;33824;51.600;5.718;2023-04-03T16:01:35;3.15;;;0.88;;
48052;SDS011;33824;51.600;5.718;2023-04-03T16:04:02;3.10;;;0.82;;
48052;SDS011;33824;51.600;5.718;2023-04-03T16:06:27;9.35;;;1.00;;
48052;SDS011;33824;51.600;5.718;2023-04-03T16:08:55;2.00;;;0.90;;
48052;SDS011;33824;51.600;5.718;2023-04-03T16:11:26;2.75;;;0.93;;
48052;SDS011;33824;51.600;5.718;2023-04-03T16:13:52;1.83;;;0.80;;
48052;SDS011;33824;51.600;5.718;2023-04-03T16:16:18;1.80;;;0.90;;
48052;SDS011;33824;51.600;5.718;2023-04-03T16:18:44;2.78;;;1.33;;
48052;SDS011;33824;51.600;5.718;2023-04-03T16:21:12;1.67;;;0.88;;
48052;SDS011;33824;51.600;5.718;2023-04-03T16:23:38;2.95;;;1.00;;
48052;SDS011;33824;51.600;5.718;2023-04-03T16:26:05;3.38;;;1.20;;
48052;SDS011;33824;51.600;5.718;2023-04-03T16:28:30;6.55;;;1.20;;
48052;SDS011;33824;51.600;5.718;2023-04-03T16:30:56;3.42;;;1.10;;
48052;SDS011;33824;51.600;5.718;2023-04-03T16:33:22;3.38;;;0.90;;
48052;SDS011;33824;51.600;5.718;2023-04-03T16:35:49;1.02;;;0.52;;